createdAt,value
2018-03-15T00:01:15.263Z,11.12
2018-03-15T00:03:43.592Z,11.47
2018-03-15T00:06:11.938Z,11.52
2018-03-15T00:08:40.259Z,11.73
2018-03-15T00:11:08.594Z,11.47
2018-03-15T00:13:36.909Z,9.32
2018-03-15T00:16:05.251Z,12.50
2018-03-15T00:18:33.564Z,11.40
2018-03-15T00:21:01.918Z,11.90
2018-03-15T00:23:30.235Z,11.40
2018-03-15T00:25:58.567Z,11.15
2018-03-15T00:28:26.887Z,10.65
2018-03-15T00:30:55.227Z,11.50
2018-03-15T00:33:23.543Z,10.33
2018-03-15T00:35:51.884Z,10.15
2018-03-15T00:38:20.194Z,11.42
2018-03-15T00:40:48.531Z,10.95
2018-03-15T00:43:16.857Z,10.37
2018-03-15T00:45:45.193Z,11.28
2018-03-15T00:48:13.509Z,9.88
2018-03-15T00:50:41.841Z,10.85
2018-03-15T00:53:10.164Z,9.90
2018-03-15T00:55:38.504Z,10.87
2018-03-15T00:58:06.823Z,10.98
2018-03-15T01:00:35.154Z,11.27
2018-03-15T01:03:03.488Z,12.57
2018-03-15T01:05:31.833Z,11.07
2018-03-15T01:08:00.151Z,11.30
2018-03-15T01:10:28.494Z,11.73
2018-03-15T01:12:56.815Z,11.43
2018-03-15T01:15:25.158Z,11.75
2018-03-15T01:17:53.478Z,12.02
2018-03-15T01:20:21.821Z,11.92
2018-03-15T01:22:50.143Z,11.63
2018-03-15T01:25:18.471Z,12.47
2018-03-15T01:27:46.799Z,11.12
2018-03-15T01:30:15.143Z,13.90
2018-03-15T01:32:43.462Z,13.18
2018-03-15T01:35:11.795Z,12.93
2018-03-15T01:37:40.111Z,11.65
2018-03-15T01:40:08.469Z,12.63
2018-03-15T01:42:36.792Z,15.12
2018-03-15T01:45:05.135Z,11.80
2018-03-15T01:47:33.454Z,13.52
2018-03-15T01:50:01.771Z,13.82
2018-03-15T01:52:30.108Z,12.22
2018-03-15T01:54:58.431Z,14.40
2018-03-15T01:57:26.766Z,11.90
2018-03-15T01:59:55.076Z,12.40
2018-03-15T02:02:23.413Z,12.32
2018-03-15T02:04:51.732Z,12.83
2018-03-15T02:07:20.074Z,12.25
2018-03-15T02:09:48.386Z,12.68
2018-03-15T02:12:16.721Z,11.62
2018-03-15T02:14:45.041Z,12.52
2018-03-15T02:17:13.381Z,13.28
2018-03-15T02:19:41.692Z,14.02
2018-03-15T02:22:10.031Z,11.87
2018-03-15T02:24:38.352Z,13.25
2018-03-15T02:27:06.684Z,12.90
2018-03-15T02:29:35.005Z,12.93
2018-03-15T02:32:03.342Z,13.63
2018-03-15T02:34:31.664Z,13.05
2018-03-15T02:37:00.008Z,14.08
2018-03-15T02:39:28.338Z,13.57
2018-03-15T02:41:56.676Z,13.10
2018-03-15T02:44:24.991Z,14.27
2018-03-15T02:46:53.338Z,12.63
2018-03-15T02:49:21.667Z,14.02
2018-03-15T02:51:50.031Z,12.70
2018-03-15T02:54:18.348Z,12.92
2018-03-15T02:56:46.690Z,13.97
2018-03-15T02:59:15.007Z,15.00
2018-03-15T03:01:43.343Z,14.08
2018-03-15T03:04:11.654Z,14.40
2018-03-15T03:06:39.995Z,14.00
2018-03-15T03:09:08.332Z,13.53
2018-03-15T03:11:36.673Z,13.65
2018-03-15T03:14:04.987Z,13.15
2018-03-15T03:16:33.333Z,13.10
2018-03-15T03:19:01.655Z,12.60
2018-03-15T03:21:30.000Z,13.27
2018-03-15T03:23:58.330Z,11.62
2018-03-15T03:26:26.679Z,12.80
2018-03-15T03:28:55.000Z,12.78
2018-03-15T03:31:23.356Z,13.28
2018-03-15T03:33:51.700Z,14.12
2018-03-15T03:36:20.027Z,12.88
2018-03-15T03:38:48.368Z,13.92
2018-03-15T03:41:16.682Z,13.08
2018-03-15T03:43:45.021Z,12.45
2018-03-15T03:46:13.338Z,13.03
2018-03-15T03:48:41.684Z,13.10
2018-03-15T03:51:09.995Z,12.75
2018-03-15T03:53:38.350Z,13.43
2018-03-15T03:56:06.667Z,12.37
2018-03-15T03:58:35.004Z,13.63
2018-03-15T04:01:03.327Z,13.40
2018-03-15T04:03:31.663Z,13.10
2018-03-15T04:05:59.978Z,13.00
2018-03-15T04:08:28.319Z,12.63
2018-03-15T04:10:56.630Z,13.33
2018-03-15T04:13:24.971Z,12.68
2018-03-15T04:15:53.296Z,13.50
2018-03-15T04:18:21.648Z,12.78
2018-03-15T04:20:49.964Z,12.47
2018-03-15T04:23:18.357Z,13.87
2018-03-15T04:25:46.674Z,13.28
2018-03-15T04:28:15.018Z,12.82
2018-03-15T04:30:43.338Z,13.22
2018-03-15T04:33:11.686Z,13.00
2018-03-15T04:35:40.009Z,12.15
2018-03-15T04:38:08.362Z,13.15
2018-03-15T04:40:36.688Z,12.62
2018-03-15T04:43:05.025Z,13.12
2018-03-15T04:45:33.334Z,12.80
2018-03-15T04:48:01.691Z,13.37
2018-03-15T04:50:30.016Z,12.43
2018-03-15T04:52:58.360Z,13.30
2018-03-15T04:55:26.683Z,13.38
2018-03-15T04:57:55.026Z,13.18
2018-03-15T05:00:23.343Z,12.65
2018-03-15T05:02:51.685Z,12.47
2018-03-15T05:05:19.998Z,14.17
2018-03-15T05:07:48.336Z,13.58
2018-03-15T05:10:16.652Z,13.53
2018-03-15T05:12:44.963Z,14.10
2018-03-15T05:15:13.311Z,14.43
2018-03-15T05:17:41.626Z,13.95
2018-03-15T05:20:09.967Z,12.75
2018-03-15T05:22:38.300Z,14.20
2018-03-15T05:25:06.688Z,14.88
2018-03-15T05:27:35.015Z,13.88
2018-03-15T05:30:03.358Z,14.17
2018-03-15T05:32:31.679Z,13.00
2018-03-15T05:35:00.025Z,12.50
2018-03-15T05:37:28.336Z,13.67
2018-03-15T05:39:56.667Z,12.75
2018-03-15T05:42:24.987Z,13.82
2018-03-15T05:44:53.370Z,13.25
2018-03-15T05:47:21.667Z,13.23
2018-03-15T05:49:50.003Z,14.03
2018-03-15T05:52:18.318Z,11.68
2018-03-15T05:54:46.663Z,14.33
2018-03-15T05:57:14.971Z,12.07
2018-03-15T05:59:43.319Z,15.23
2018-03-15T06:02:11.633Z,13.77
2018-03-15T06:04:39.966Z,15.05
2018-03-15T06:07:08.322Z,14.47
2018-03-15T06:09:36.661Z,14.47
2018-03-15T06:12:04.989Z,15.05
2018-03-15T06:14:33.324Z,15.10
2018-03-15T06:17:01.648Z,14.83
2018-03-15T06:19:29.987Z,14.10
2018-03-15T06:21:58.296Z,15.93
2018-03-15T06:24:26.642Z,13.40
2018-03-15T06:26:54.972Z,14.62
2018-03-15T06:29:23.311Z,14.15
2018-03-15T06:31:51.631Z,14.30
2018-03-15T06:34:19.971Z,13.45
2018-03-15T06:36:48.424Z,14.68
2018-03-15T06:39:16.764Z,14.62
2018-03-15T06:41:45.092Z,13.80
2018-03-15T06:44:13.439Z,14.55
2018-03-15T06:46:41.764Z,15.58
2018-03-15T06:49:10.102Z,15.95
2018-03-15T06:51:38.431Z,17.50
2018-03-15T06:54:06.756Z,15.42
2018-03-15T06:56:35.098Z,16.05
2018-03-15T06:59:03.441Z,13.17
2018-03-15T07:01:31.787Z,17.13
2018-03-15T07:04:00.104Z,15.70
2018-03-15T07:06:28.442Z,14.37
2018-03-15T07:08:56.799Z,16.13
2018-03-15T07:11:25.139Z,15.13
2018-03-15T07:13:53.483Z,15.82
2018-03-15T07:16:21.057Z,14.92
2018-03-15T07:18:49.384Z,15.05
2018-03-15T07:21:17.839Z,14.58
2018-03-15T07:23:46.159Z,14.52
2018-03-15T07:26:14.504Z,14.32
2018-03-15T07:28:42.827Z,16.45
2018-03-15T07:31:11.212Z,14.22
2018-03-15T07:33:39.550Z,15.02
2018-03-15T07:36:08.007Z,15.02
2018-03-15T07:38:36.329Z,17.92
2018-03-15T07:41:04.680Z,15.98
2018-03-15T07:43:32.992Z,14.73
2018-03-15T07:46:01.332Z,13.82
2018-03-15T07:48:29.648Z,15.83
2018-03-15T07:50:58.128Z,14.55
2018-03-15T07:53:26.451Z,15.07
2018-03-15T07:55:54.810Z,13.75
2018-03-15T07:58:23.128Z,15.68
2018-03-15T08:00:51.464Z,14.08
2018-03-15T08:03:19.787Z,12.83
2018-03-15T08:05:48.122Z,15.20
2018-03-15T08:08:16.434Z,13.92
2018-03-15T08:10:44.768Z,14.05
2018-03-15T08:13:13.079Z,14.23
2018-03-15T08:15:41.420Z,14.05
2018-03-15T08:18:09.748Z,14.65
2018-03-15T08:20:38.128Z,14.08
2018-03-15T08:23:06.432Z,13.90
2018-03-15T08:25:34.773Z,13.57
2018-03-15T08:28:03.106Z,13.58
2018-03-15T08:30:31.448Z,13.90
2018-03-15T08:32:59.772Z,13.53
2018-03-15T08:35:28.138Z,14.65
2018-03-15T08:37:56.473Z,14.08
2018-03-15T08:40:24.802Z,14.22
2018-03-15T08:42:53.140Z,14.15
2018-03-15T08:45:21.451Z,13.17
2018-03-15T08:47:49.800Z,12.08
2018-03-15T08:50:18.118Z,13.85
2018-03-15T08:52:46.467Z,13.87
2018-03-15T08:55:14.790Z,14.33
2018-03-15T08:57:43.135Z,14.20
2018-03-15T09:00:11.474Z,13.28
2018-03-15T09:02:39.827Z,12.70
2018-03-15T09:05:08.163Z,12.42
2018-03-15T09:07:36.521Z,12.88
2018-03-15T09:10:04.868Z,12.87
2018-03-15T09:12:33.211Z,12.98
2018-03-15T09:15:01.549Z,12.50
2018-03-15T09:17:29.907Z,11.68
2018-03-15T09:19:58.231Z,12.92
2018-03-15T09:22:26.583Z,13.77
2018-03-15T09:24:54.903Z,11.64
2018-03-15T09:27:23.242Z,13.02
2018-03-15T09:29:51.565Z,11.80
2018-03-15T09:32:19.917Z,13.04
2018-03-15T09:34:48.268Z,12.40
2018-03-15T09:37:16.638Z,11.58
2018-03-15T09:39:45.004Z,12.06
2018-03-15T09:42:13.392Z,12.58
2018-03-15T09:44:41.734Z,12.44
2018-03-15T09:47:10.106Z,11.58
2018-03-15T09:49:38.456Z,12.60
2018-03-15T09:52:06.823Z,12.42
2018-03-15T09:54:35.176Z,11.86
2018-03-15T09:57:03.566Z,11.22
2018-03-15T09:59:31.951Z,11.14
2018-03-15T10:02:00.314Z,11.52
2018-03-15T10:04:28.654Z,12.12
2018-03-15T10:06:57.012Z,11.10
2018-03-15T10:09:25.356Z,10.50
2018-03-15T10:11:53.716Z,10.20
2018-03-15T10:14:22.055Z,11.10
2018-03-15T10:16:50.423Z,10.76
2018-03-15T10:19:18.745Z,10.60
2018-03-15T10:21:47.123Z,8.92
2018-03-15T10:24:15.446Z,9.16
2018-03-15T10:26:43.802Z,9.92
2018-03-15T10:29:12.169Z,9.48
2018-03-15T10:31:40.522Z,10.16
2018-03-15T10:34:08.885Z,9.34
2018-03-15T10:36:37.224Z,10.28
2018-03-15T10:39:05.582Z,9.92
2018-03-15T10:41:33.923Z,9.82
2018-03-15T10:44:02.287Z,9.76
2018-03-15T10:46:30.640Z,10.10
2018-03-15T10:48:59.017Z,10.90
2018-03-15T10:51:27.345Z,10.46
2018-03-15T10:53:55.723Z,10.14
2018-03-15T10:56:24.055Z,9.64
2018-03-15T10:58:52.415Z,9.78
2018-03-15T11:01:22.573Z,10.64
2018-03-15T11:03:50.943Z,10.16
2018-03-15T11:06:25.031Z,9.32
2018-03-15T11:08:58.275Z,9.62
2018-03-15T11:11:26.616Z,10.50
2018-03-15T11:13:55.234Z,9.76
2018-03-15T11:16:23.570Z,10.42
2018-03-15T11:18:51.936Z,10.22
2018-03-15T11:21:20.279Z,10.16
2018-03-15T11:23:48.714Z,10.26
2018-03-15T11:26:16.978Z,9.92
2018-03-15T11:28:45.341Z,9.02
2018-03-15T11:31:13.697Z,10.10
2018-03-15T11:33:42.071Z,11.84
2018-03-15T11:36:10.416Z,9.94
2018-03-15T11:38:38.785Z,10.00
2018-03-15T11:41:07.149Z,10.75
2018-03-15T11:43:35.511Z,11.63
2018-03-15T11:46:03.865Z,9.60
2018-03-15T11:48:32.209Z,9.52
2018-03-15T11:51:00.552Z,8.97
2018-03-15T11:53:28.908Z,10.45
2018-03-15T11:55:57.248Z,10.32
2018-03-15T11:58:25.625Z,9.85
2018-03-15T12:00:53.963Z,10.68
2018-03-15T12:03:22.335Z,12.94
2018-03-15T12:05:50.688Z,13.42
2018-03-15T12:08:19.029Z,11.22
2018-03-15T12:10:47.392Z,9.90
2018-03-15T12:13:15.730Z,10.06
2018-03-15T12:15:44.109Z,9.86
2018-03-15T12:18:12.449Z,10.10
2018-03-15T12:20:40.788Z,10.10
2018-03-15T12:23:09.120Z,10.48
2018-03-15T12:25:37.463Z,10.80
2018-03-15T12:28:05.776Z,10.98
2018-03-15T12:30:34.109Z,10.20
2018-03-15T12:33:02.471Z,13.73
2018-03-15T12:35:30.818Z,12.30
2018-03-15T12:37:59.154Z,9.34
2018-03-15T12:40:27.500Z,10.28
2018-03-15T12:42:55.823Z,9.90
2018-03-15T12:45:24.162Z,10.48
2018-03-15T12:47:52.491Z,10.40
2018-03-15T12:50:20.856Z,10.58
2018-03-15T12:52:49.182Z,10.50
2018-03-15T12:55:17.524Z,10.16
2018-03-15T12:57:45.847Z,12.18
2018-03-15T13:00:14.191Z,10.96
2018-03-15T13:02:42.504Z,12.12
2018-03-15T13:05:10.848Z,10.88
2018-03-15T13:07:39.171Z,10.32
2018-03-15T13:10:07.525Z,10.46
2018-03-15T13:12:35.936Z,10.30
2018-03-15T13:15:04.287Z,11.14
2018-03-15T13:17:32.611Z,10.40
2018-03-15T13:20:00.963Z,8.90
2018-03-15T13:22:29.285Z,20.88
2018-03-15T13:24:57.650Z,11.38
2018-03-15T13:27:25.971Z,10.38
2018-03-15T13:29:54.312Z,9.54
2018-03-15T13:32:22.633Z,9.14
2018-03-15T13:34:50.977Z,9.34
2018-03-15T13:37:19.313Z,10.00
2018-03-15T13:39:47.663Z,10.76
2018-03-15T13:42:15.996Z,8.70
2018-03-15T13:44:44.338Z,9.36
2018-03-15T13:47:12.677Z,8.62
2018-03-15T13:49:41.058Z,10.25
2018-03-15T13:52:09.382Z,8.94
2018-03-15T13:54:37.711Z,8.84
2018-03-15T13:57:06.057Z,9.58
2018-03-15T13:59:34.386Z,9.38
2018-03-15T14:02:02.781Z,10.62
2018-03-15T14:04:31.093Z,8.72
2018-03-15T14:06:59.441Z,8.72
2018-03-15T14:09:27.780Z,9.60
2018-03-15T14:11:56.146Z,13.84
2018-03-15T14:14:24.466Z,12.68
2018-03-15T14:16:52.823Z,12.87
2018-03-15T14:19:21.148Z,11.20
2018-03-15T14:21:49.494Z,13.10
2018-03-15T14:24:17.819Z,12.70
2018-03-15T14:26:46.177Z,41.84
2018-03-15T14:29:14.518Z,8.28
2018-03-15T14:31:42.874Z,11.44
2018-03-15T14:34:11.202Z,9.26
2018-03-15T14:36:39.546Z,7.68
2018-03-15T14:39:07.864Z,10.58
2018-03-15T14:41:36.219Z,12.66
2018-03-15T14:44:04.547Z,10.62
2018-03-15T14:46:32.947Z,22.87
2018-03-15T14:49:01.275Z,20.48
2018-03-15T14:51:29.626Z,9.90
2018-03-15T14:53:57.960Z,13.74
2018-03-15T14:56:26.298Z,21.56
2018-03-15T14:58:54.615Z,15.02
2018-03-15T15:01:22.963Z,9.78
2018-03-15T15:03:51.285Z,12.13
2018-03-15T15:06:19.693Z,10.06
2018-03-15T15:08:47.977Z,9.06
2018-03-15T15:11:16.316Z,9.26
2018-03-15T15:13:44.652Z,8.80
2018-03-15T15:16:13.050Z,9.82
2018-03-15T15:18:41.341Z,10.22
2018-03-15T15:21:09.676Z,9.22
2018-03-15T15:23:38.023Z,10.46
2018-03-15T15:26:06.388Z,9.15
2018-03-15T15:28:34.736Z,9.87
2018-03-15T15:31:03.083Z,11.08
2018-03-15T15:33:31.407Z,11.50
2018-03-15T15:35:59.731Z,10.08
2018-03-15T15:38:28.067Z,8.93
2018-03-15T15:40:56.400Z,9.48
2018-03-15T15:43:24.748Z,9.30
2018-03-15T15:45:53.072Z,9.77
2018-03-15T15:48:20.656Z,10.94
2018-03-15T15:50:48.984Z,10.48
2018-03-15T15:53:17.340Z,9.95
2018-03-15T15:55:45.672Z,12.24
2018-03-15T15:58:14.009Z,9.45
2018-03-15T16:00:42.327Z,9.10
2018-03-15T16:03:10.713Z,10.26
2018-03-15T16:05:39.043Z,10.26
2018-03-15T16:08:07.384Z,9.62
2018-03-15T16:10:35.704Z,9.73
2018-03-15T16:13:04.053Z,9.53
2018-03-15T16:15:32.420Z,9.62
2018-03-15T16:18:00.772Z,9.42
2018-03-15T16:20:29.118Z,10.73
2018-03-15T16:22:57.462Z,10.78
2018-03-15T16:25:25.794Z,10.05
2018-03-15T16:27:54.131Z,11.35
2018-03-15T16:30:22.455Z,12.50
2018-03-15T16:32:50.801Z,13.52
2018-03-15T16:35:19.120Z,14.10
2018-03-15T16:37:47.459Z,15.17
2018-03-15T16:40:15.783Z,15.30
2018-03-15T16:42:44.131Z,15.43
2018-03-15T16:45:12.452Z,16.80
2018-03-15T16:47:40.796Z,15.63
2018-03-15T16:50:09.131Z,15.35
2018-03-15T16:52:37.477Z,14.62
2018-03-15T16:55:05.806Z,13.88
2018-03-15T16:57:34.152Z,12.70
2018-03-15T17:00:02.542Z,11.73
2018-03-15T17:02:30.903Z,12.00
2018-03-15T17:04:59.211Z,11.45
2018-03-15T17:07:27.560Z,11.13
2018-03-15T17:09:55.887Z,12.67
2018-03-15T17:12:24.235Z,12.67
2018-03-15T17:14:52.554Z,12.73
2018-03-15T17:17:20.909Z,15.38
2018-03-15T17:19:49.264Z,20.83
2018-03-15T17:22:17.604Z,15.40
2018-03-15T17:24:45.991Z,14.95
2018-03-15T17:27:14.311Z,15.55
2018-03-15T17:29:42.656Z,14.77
2018-03-15T17:32:10.986Z,14.57
2018-03-15T17:34:39.341Z,15.20
2018-03-15T17:37:07.666Z,19.33
2018-03-15T17:39:36.042Z,13.32
2018-03-15T17:42:04.364Z,14.17
2018-03-15T17:44:32.714Z,18.55
2018-03-15T17:47:01.044Z,18.63
2018-03-15T17:49:29.402Z,17.12
2018-03-15T17:51:57.732Z,18.98
2018-03-15T17:54:26.088Z,15.58
2018-03-15T17:56:54.404Z,14.48
2018-03-15T17:59:22.811Z,17.85
2018-03-15T18:01:51.119Z,17.17
2018-03-15T18:04:19.465Z,16.30
2018-03-15T18:06:47.790Z,31.07
2018-03-15T18:09:16.148Z,32.63
2018-03-15T18:11:44.488Z,20.68
2018-03-15T18:14:12.928Z,73.05
2018-03-15T18:16:41.183Z,29.08
2018-03-15T18:19:09.531Z,22.80
2018-03-15T18:21:37.863Z,17.80
2018-03-15T18:24:06.214Z,18.47
2018-03-15T18:26:34.551Z,17.23
2018-03-15T18:29:02.934Z,19.40
2018-03-15T18:31:31.281Z,18.20
2018-03-15T18:33:59.635Z,28.53
2018-03-15T18:36:27.978Z,24.80
2018-03-15T18:38:56.401Z,17.10
2018-03-15T18:41:24.786Z,35.42
2018-03-15T18:43:53.135Z,24.00
2018-03-15T18:46:21.453Z,21.18
2018-03-15T18:48:49.817Z,21.00
2018-03-15T18:51:18.145Z,20.27
2018-03-15T18:53:46.526Z,21.05
2018-03-15T18:56:14.829Z,22.23
2018-03-15T18:58:43.173Z,21.40
2018-03-15T19:01:12.617Z,21.60
2018-03-15T19:03:39.862Z,23.90
2018-03-15T19:06:08.193Z,21.38
2018-03-15T19:08:36.549Z,23.37
2018-03-15T19:11:04.874Z,21.40
2018-03-15T19:13:33.232Z,23.40
2018-03-15T19:16:01.575Z,22.55
2018-03-15T19:18:29.965Z,22.57
2018-03-15T19:20:58.390Z,22.32
2018-03-15T19:23:26.723Z,23.20
2018-03-15T19:25:55.093Z,21.77
2018-03-15T19:28:23.411Z,20.07
2018-03-15T19:30:51.825Z,19.98
2018-03-15T19:33:20.111Z,22.40
2018-03-15T19:35:48.794Z,21.90
2018-03-15T19:38:17.150Z,20.90
2018-03-15T19:40:45.485Z,21.20
2018-03-15T19:43:13.808Z,19.73
2018-03-15T19:45:42.204Z,22.58
2018-03-15T19:48:10.536Z,20.87
2018-03-15T19:50:38.893Z,19.67
2018-03-15T19:53:07.210Z,22.38
2018-03-15T19:55:35.552Z,22.32
2018-03-15T19:58:03.879Z,20.53
2018-03-15T20:00:32.219Z,23.28
2018-03-15T20:03:00.543Z,21.58
2018-03-15T20:05:28.890Z,23.17
2018-03-15T20:07:57.207Z,22.52
2018-03-15T20:10:25.567Z,23.45
2018-03-15T20:12:53.900Z,23.98
2018-03-15T20:15:22.243Z,22.13
2018-03-15T20:17:50.566Z,22.98
2018-03-15T20:20:18.924Z,21.92
2018-03-15T20:22:52.920Z,24.58
2018-03-15T20:25:21.291Z,21.35
2018-03-15T20:27:55.226Z,24.98
2018-03-15T20:30:23.606Z,22.57
2018-03-15T20:32:57.665Z,21.45
2018-03-15T20:35:25.236Z,19.12
2018-03-15T20:37:53.563Z,22.55
2018-03-15T20:40:27.627Z,26.05
2018-03-15T20:42:55.971Z,25.65
2018-03-15T20:45:29.930Z,26.58
2018-03-15T20:48:03.955Z,24.90
2018-03-15T20:50:32.312Z,24.32
2018-03-15T20:53:00.635Z,24.18
2018-03-15T20:55:28.980Z,25.78
2018-03-15T20:57:57.337Z,25.12
2018-03-15T21:00:25.685Z,26.32
2018-03-15T21:02:54.005Z,23.67
2018-03-15T21:05:22.405Z,24.70
2018-03-15T21:07:50.711Z,24.30
2018-03-15T21:10:19.055Z,26.25
2018-03-15T21:12:47.379Z,22.60
2018-03-15T21:15:15.704Z,26.33
2018-03-15T21:17:44.101Z,25.28
2018-03-15T21:20:12.399Z,25.73
2018-03-15T21:22:40.744Z,24.17
2018-03-15T21:25:09.064Z,24.30
2018-03-15T21:27:37.411Z,22.48
2018-03-15T21:30:05.731Z,25.25
2018-03-15T21:32:34.083Z,25.50
2018-03-15T21:35:02.412Z,23.63
2018-03-15T21:37:30.748Z,24.07
2018-03-15T21:39:59.088Z,21.42
2018-03-15T21:42:27.427Z,26.00
2018-03-15T21:44:55.752Z,26.88
2018-03-15T21:47:24.102Z,25.90
2018-03-15T21:49:52.419Z,26.33
2018-03-15T21:52:20.761Z,21.78
2018-03-15T21:54:49.098Z,25.00
2018-03-15T21:57:17.446Z,25.22
2018-03-15T21:59:45.754Z,27.03
2018-03-15T22:02:14.106Z,24.52
2018-03-15T22:04:42.420Z,22.15
2018-03-15T22:07:10.763Z,23.52
2018-03-15T22:09:39.087Z,27.23
2018-03-15T22:12:07.447Z,25.52
2018-03-15T22:14:35.770Z,25.77
2018-03-15T22:17:04.115Z,26.00
2018-03-15T22:19:32.430Z,21.17
2018-03-15T22:22:00.772Z,21.42
2018-03-15T22:24:29.091Z,22.25
2018-03-15T22:26:57.439Z,21.10
2018-03-15T22:29:25.757Z,20.87
2018-03-15T22:31:54.104Z,20.30
2018-03-15T22:34:22.422Z,19.92
2018-03-15T22:36:50.766Z,17.33
2018-03-15T22:39:18.312Z,22.33
2018-03-15T22:41:46.653Z,20.07
2018-03-15T22:44:14.975Z,21.32
2018-03-15T22:46:43.323Z,20.10
2018-03-15T22:49:11.650Z,21.62
2018-03-15T22:51:39.996Z,19.60
2018-03-15T22:54:08.333Z,19.45
2018-03-15T22:56:36.693Z,18.67
2018-03-15T22:59:05.013Z,19.95
2018-03-15T23:01:33.332Z,19.68
2018-03-15T23:04:01.678Z,18.58
2018-03-15T23:06:29.998Z,19.72
2018-03-15T23:08:58.338Z,20.17
2018-03-15T23:11:26.676Z,19.63
2018-03-15T23:13:55.026Z,20.60
2018-03-15T23:16:23.348Z,20.08
2018-03-15T23:18:51.710Z,18.80
2018-03-15T23:21:20.031Z,21.15
2018-03-15T23:23:48.375Z,21.57
2018-03-15T23:26:16.707Z,20.32
2018-03-15T23:28:45.051Z,20.02
2018-03-15T23:31:13.382Z,19.85
2018-03-15T23:33:41.718Z,18.70
2018-03-15T23:36:10.039Z,22.83
2018-03-15T23:38:37.614Z,19.93
2018-03-15T23:41:05.945Z,19.55
2018-03-15T23:43:34.294Z,20.83
2018-03-15T23:46:02.626Z,20.75
2018-03-15T23:48:30.959Z,20.92
2018-03-15T23:50:59.277Z,20.55
2018-03-15T23:53:27.624Z,21.38
2018-03-15T23:55:55.943Z,26.07
2018-03-15T23:58:24.305Z,27.40
